Time;durP1;ratioP1;P1;durP2;ratioP2;P2;SDS_P1;SDS_P2;PMS_P1;PMS_P2;Temp;Humidity;BMP_temperature;BMP_pressure;BME280_temperature;BME280_humidity;BME280_pressure;Samples;Min_cycle;Max_cycle;Signal;HPM_P1;HPM_P2
2022/10/01 00:01:05;;;;;;;6.47;2.90;;;8.60;99.90;;;;;;6112581;23;20537;-86
2022/10/01 00:03:32;;;;;;;9.02;4.10;;;8.70;99.90;;;;;;6113375;23;20010;-86
2022/10/01 00:06:16;;;;;;;4.82;3.78;;;8.60;99.90;;;;;;6115822;23;20002;-87
2022/10/01 00:08:47;;;;;;;5.82;3.28;;;8.70;99.90;;;;;;6117690;23;20009;-87
2022/10/01 00:11:16;;;;;;;8.95;3.78;;;8.70;99.90;;;;;;6115730;23;20081;-86
2022/10/01 00:13:43;;;;;;;8.38;3.45;;;8.70;99.90;;;;;;6116951;23;20008;-87
2022/10/01 00:16:12;;;;;;;12.60;4.07;;;8.70;99.90;;;;;;6115248;23;20016;-85
2022/10/01 00:18:40;;;;;;;6.47;4.25;;;8.70;99.90;;;;;;6116445;23;20014;-85
2022/10/01 00:21:11;;;;;;;9.23;4.63;;;8.80;99.90;;;;;;6115319;23;20494;-86
2022/10/01 00:23:38;;;;;;;7.93;5.38;;;9.10;99.90;;;;;;6116031;23;20018;-85
2022/10/01 00:26:32;;;;;;;5.80;4.25;;;9.30;99.90;;;;;;6116563;23;20010;-87
2022/10/01 00:29:03;;;;;;;9.88;4.85;;;9.40;99.90;;;;;;6112731;23;20006;-87
2022/10/01 00:31:29;;;;;;;14.63;5.30;;;9.50;99.90;;;;;;6116536;23;20077;-86
2022/10/01 00:34:02;;;;;;;8.85;5.07;;;9.60;99.90;;;;;;6116546;23;20012;-86
2022/10/01 00:36:28;;;;;;;11.25;4.70;;;9.70;99.90;;;;;;6116220;23;20006;-86
2022/10/01 00:39:01;;;;;;;8.27;4.82;;;9.80;99.90;;;;;;6115763;23;20014;-85
2022/10/01 00:41:30;;;;;;;11.40;4.65;;;9.80;99.90;;;;;;6114156;23;20668;-87
2022/10/01 00:43:59;;;;;;;8.88;4.68;;;9.90;99.90;;;;;;6116270;23;20014;-88
2022/10/01 00:46:44;;;;;;;13.27;5.05;;;10.00;99.90;;;;;;6115121;23;20009;-86
2022/10/01 00:49:13;;;;;;;9.30;5.28;;;10.10;99.90;;;;;;6114752;23;20049;-88
2022/10/01 00:51:44;;;;;;;18.77;5.13;;;10.20;99.90;;;;;;6114514;23;20078;-85
2022/10/01 00:54:13;;;;;;;13.27;4.45;;;10.30;99.90;;;;;;6116154;23;20014;-87
2022/10/01 00:56:40;;;;;;;5.55;4.30;;;10.40;99.90;;;;;;6115351;23;20025;-88
2022/10/01 00:59:06;;;;;;;5.90;3.90;;;10.40;99.90;;;;;;6117140;23;20387;-84
2022/10/01 01:01:34;;;;;;;7.28;4.28;;;10.40;99.90;;;;;;6114743;23;20046;-87
2022/10/01 01:04:00;;;;;;;5.22;3.58;;;10.50;99.90;;;;;;6117720;23;20014;-86
2022/10/01 01:06:26;;;;;;;7.07;3.28;;;10.50;99.90;;;;;;6117532;23;20010;-87
2022/10/01 01:09:02;;;;;;;5.55;3.30;;;10.50;99.90;;;;;;6118941;23;20009;-85
2022/10/01 01:12:03;;;;;;;6.75;3.53;;;10.40;99.90;;;;;;6117359;23;20055;-86
2022/10/01 01:15:19;;;;;;;7.07;3.63;;;10.50;99.90;;;;;;6073451;23;20430;-87
2022/10/01 01:17:45;;;;;;;6.18;3.60;;;10.40;99.90;;;;;;6028959;23;20028;-87
2022/10/01 01:20:24;;;;;;;5.60;3.53;;;10.40;99.90;;;;;;6027336;23;20050;-86
2022/10/01 01:23:05;;;;;;;8.60;3.80;;;10.40;99.90;;;;;;6083480;23;20041;-86
2022/10/01 01:25:53;;;;;;;8.73;3.90;;;10.40;99.90;;;;;;6115593;23;20010;-86
2022/10/01 01:28:49;;;;;;;13.35;4.93;;;10.40;99.90;;;;;;6118695;23;20370;-87
2022/10/01 01:31:25;;;;;;;9.13;4.57;;;10.50;99.90;;;;;;6104662;23;20006;-88
2022/10/01 01:33:56;;;;;;;10.32;4.18;;;10.50;99.90;;;;;;6119374;23;20047;-86
2022/10/01 01:36:29;;;;;;;10.77;4.05;;;10.50;99.90;;;;;;6117230;23;19999;-85
2022/10/01 01:39:05;;;;;;;5.97;3.97;;;10.40;99.90;;;;;;6118064;23;20029;-84
2022/10/01 01:41:37;;;;;;;9.88;3.92;;;10.50;99.90;;;;;;6116843;23;20013;-86
2022/10/01 01:44:07;;;;;;;10.77;4.05;;;10.40;99.90;;;;;;6117556;23;20024;-88
2022/10/01 01:46:36;;;;;;;8.05;3.97;;;10.40;99.90;;;;;;6117943;23;20562;-87
2022/10/01 01:49:06;;;;;;;13.70;3.83;;;10.30;99.90;;;;;;6118910;23;20013;-85
2022/10/01 01:51:39;;;;;;;9.65;4.07;;;10.30;99.90;;;;;;6117071;23;20013;-86
2022/10/01 01:54:05;;;;;;;7.15;4.00;;;10.20;99.90;;;;;;6117274;23;20083;-85
2022/10/01 01:56:33;;;;;;;6.18;4.05;;;10.20;99.90;;;;;;6117572;23;20006;-87
2022/10/01 01:59:05;;;;;;;8.45;3.95;;;10.20;99.90;;;;;;6117938;23;20006;-87
2022/10/01 02:01:40;;;;;;;7.45;3.50;;;10.10;99.90;;;;;;6116949;23;20006;-86
2022/10/01 02:04:27;;;;;;;5.43;3.28;;;10.10;99.90;;;;;;6118404;23;20329;-86
2022/10/01 02:07:07;;;;;;;5.18;3.70;;;10.10;99.90;;;;;;6116849;23;20052;-84
2022/10/01 02:09:48;;;;;;;7.47;3.47;;;10.10;99.90;;;;;;6117867;23;20343;-86
2022/10/01 02:12:39;;;;;;;12.93;4.40;;;10.00;99.90;;;;;;6115882;23;20549;-84
2022/10/01 02:15:34;;;;;;;6.95;4.00;;;10.10;99.90;;;;;;6114239;23;20419;-87
2022/10/01 02:18:32;;;;;;;10.27;3.67;;;10.00;99.90;;;;;;6116341;22;20402;-86
2022/10/01 02:21:13;;;;;;;9.27;4.32;;;10.00;99.90;;;;;;6116441;23;20071;-86
2022/10/01 02:23:56;;;;;;;6.00;3.83;;;10.00;99.90;;;;;;6118036;23;20021;-87
2022/10/01 02:26:24;;;;;;;8.02;4.93;;;10.10;99.90;;;;;;6116454;23;20029;-87
2022/10/01 02:28:53;;;;;;;9.18;4.55;;;10.10;99.90;;;;;;6118709;23;20017;-86
2022/10/01 02:31:21;;;;;;;8.75;5.35;;;10.10;99.90;;;;;;6115907;23;20006;-86
2022/10/01 02:33:50;;;;;;;7.05;3.88;;;10.00;99.90;;;;;;6117132;23;20085;-89
2022/10/01 02:36:18;;;;;;;9.55;3.95;;;10.00;99.90;;;;;;6114784;23;20010;-88
2022/10/01 02:38:45;;;;;;;8.10;4.45;;;10.10;99.90;;;;;;6117763;23;20595;-88
2022/10/01 02:41:15;;;;;;;8.25;4.03;;;10.10;99.90;;;;;;6116642;23;20009;-88
2022/10/01 02:43:50;;;;;;;6.72;4.07;;;10.10;99.90;;;;;;6117363;23;20045;-88
2022/10/01 02:46:34;;;;;;;6.28;4.47;;;10.10;99.90;;;;;;6117516;23;20010;-90
2022/10/01 02:49:01;;;;;;;8.18;3.90;;;10.10;99.90;;;;;;6115480;23;20428;-86
2022/10/01 02:51:34;;;;;;;10.20;5.25;;;10.00;99.90;;;;;;6114615;23;20006;-89
2022/10/01 02:54:27;;;;;;;14.38;3.80;;;10.10;99.90;;;;;;6116190;23;20493;-87
2022/10/01 02:59:38;;;;;;;6.10;3.83;;;10.10;99.90;;;;;;6117031;23;20132;-88
2022/10/01 03:02:07;;;;;;;7.15;4.40;;;10.00;99.90;;;;;;6116705;23;20033;-87
2022/10/01 03:04:33;;;;;;;8.75;4.95;;;10.00;99.90;;;;;;6115712;23;20014;-87
2022/10/01 03:07:02;;;;;;;10.82;4.20;;;10.00;99.90;;;;;;6116857;23;20010;-87
2022/10/01 03:09:30;;;;;;;5.97;3.78;;;10.00;99.90;;;;;;6117929;23;20053;-88
2022/10/01 03:11:56;;;;;;;6.93;3.80;;;10.00;99.90;;;;;;6117855;23;20006;-86
2022/10/01 03:14:23;;;;;;;6.03;4.10;;;9.90;99.90;;;;;;6118974;23;20014;-86
2022/10/01 03:16:49;;;;;;;13.27;4.28;;;9.90;99.90;;;;;;6117078;23;20322;-87
2022/10/01 03:19:15;;;;;;;6.07;3.50;;;9.90;99.90;;;;;;6116915;23;20074;-87
2022/10/01 03:21:40;;;;;;;5.60;3.45;;;9.90;99.90;;;;;;6117198;23;20055;-87
2022/10/01 03:24:06;;;;;;;5.40;3.55;;;9.90;99.90;;;;;;6117259;23;20093;-86
2022/10/01 03:26:32;;;;;;;6.13;3.75;;;10.00;99.90;;;;;;6117469;23;20013;-88
2022/10/01 03:28:57;;;;;;;6.57;3.80;;;10.00;99.90;;;;;;6116698;23;20009;-89
2022/10/01 03:31:23;;;;;;;5.35;3.47;;;10.00;99.90;;;;;;6115136;23;20014;-86
2022/10/01 03:33:49;;;;;;;7.53;3.58;;;10.00;99.90;;;;;;6118127;23;20006;-88
2022/10/01 03:36:19;;;;;;;8.15;4.35;;;10.00;99.90;;;;;;6117528;23;20010;-85
2022/10/01 03:38:45;;;;;;;6.68;4.15;;;10.20;99.90;;;;;;6118087;23;20029;-86
2022/10/01 03:41:10;;;;;;;5.20;3.90;;;10.20;99.90;;;;;;6116198;23;20009;-86
2022/10/01 03:43:36;;;;;;;10.23;4.57;;;10.10;99.90;;;;;;6118105;23;20017;-87
2022/10/01 03:46:02;;;;;;;7.68;4.32;;;10.10;99.90;;;;;;6117303;23;20101;-88
2022/10/01 03:48:28;;;;;;;13.57;5.00;;;10.10;99.90;;;;;;6116964;23;20479;-86
2022/10/01 03:50:56;;;;;;;8.63;4.40;;;10.10;99.90;;;;;;6116978;23;20006;-87
2022/10/01 03:53:22;;;;;;;10.48;4.00;;;10.10;99.90;;;;;;6117584;23;20006;-85
2022/10/01 03:55:48;;;;;;;12.13;5.20;;;10.10;99.90;;;;;;6117354;23;20128;-88
2022/10/01 03:58:14;;;;;;;11.43;4.57;;;10.10;99.90;;;;;;6117132;23;20006;-86
2022/10/01 04:00:40;;;;;;;8.77;4.18;;;10.10;99.90;;;;;;6116787;23;20358;-91
2022/10/01 04:03:06;;;;;;;7.13;4.45;;;10.00;99.90;;;;;;6117690;23;20018;-86
2022/10/01 04:05:31;;;;;;;18.73;6.72;;;10.00;99.90;;;;;;6117644;23;20439;-86
2022/10/01 04:08:03;;;;;;;7.22;4.10;;;10.00;99.90;;;;;;6118490;23;20006;-86
2022/10/01 04:10:29;;;;;;;10.40;4.68;;;9.90;99.90;;;;;;6117766;23;20048;-87
2022/10/01 04:12:55;;;;;;;7.32;4.00;;;9.90;99.90;;;;;;6117543;23;20002;-88
2022/10/01 04:15:23;;;;;;;8.82;4.20;;;9.90;99.90;;;;;;6117037;23;20010;-87
2022/10/01 04:17:49;;;;;;;16.77;4.97;;;9.90;99.90;;;;;;6118121;22;20033;-86
2022/10/01 04:20:15;;;;;;;10.30;4.50;;;10.00;99.90;;;;;;6118084;23;20002;-88
2022/10/01 04:22:41;;;;;;;10.55;3.75;;;10.10;99.90;;;;;;6117024;23;20025;-87
2022/10/01 04:25:09;;;;;;;9.75;4.53;;;10.20;99.90;;;;;;6117983;23;20166;-88
2022/10/01 04:27:39;;;;;;;6.13;4.18;;;10.20;99.90;;;;;;6117533;23;19999;-87
2022/10/01 04:30:07;;;;;;;9.18;4.18;;;10.20;99.90;;;;;;6118121;23;20428;-86
2022/10/01 04:32:33;;;;;;;12.90;4.20;;;10.30;99.90;;;;;;6116442;23;20025;-87
2022/10/01 04:34:59;;;;;;;8.90;3.45;;;10.30;99.90;;;;;;6116949;23;20009;-86
2022/10/01 04:37:26;;;;;;;6.15;4.30;;;10.30;99.90;;;;;;6117795;23;20013;-87
2022/10/01 04:39:53;;;;;;;10.05;4.30;;;10.40;99.90;;;;;;6119257;23;20085;-85
2022/10/01 04:42:19;;;;;;;8.73;4.18;;;10.40;99.90;;;;;;6115694;23;20319;-84
2022/10/01 04:44:45;;;;;;;9.63;4.38;;;10.50;99.90;;;;;;6117104;23;20060;-85
2022/10/01 04:47:10;;;;;;;6.28;3.70;;;10.50;99.90;;;;;;6117028;23;20492;-85
2022/10/01 04:49:39;;;;;;;6.22;3.63;;;10.50;99.90;;;;;;6117667;23;19998;-86
2022/10/01 04:52:08;;;;;;;8.60;3.88;;;10.60;99.90;;;;;;6117647;23;20006;-86
2022/10/01 04:54:33;;;;;;;9.95;4.38;;;10.60;99.90;;;;;;6118441;23;20021;-86
2022/10/01 04:56:59;;;;;;;5.13;3.72;;;10.50;99.90;;;;;;6118545;23;20002;-87
2022/10/01 04:59:28;;;;;;;12.27;3.92;;;10.60;99.90;;;;;;6117873;23;20096;-87
2022/10/01 05:01:53;;;;;;;7.13;3.92;;;10.60;99.90;;;;;;6118321;23;20006;-86
2022/10/01 05:04:19;;;;;;;8.20;4.22;;;10.60;99.90;;;;;;6118460;23;20018;-88
2022/10/01 05:06:45;;;;;;;7.13;3.92;;;10.60;99.90;;;;;;6117834;23;20049;-83
2022/10/01 05:09:10;;;;;;;7.10;4.20;;;10.60;99.90;;;;;;6118309;23;20002;-87
2022/10/01 05:11:37;;;;;;;9.73;4.63;;;10.60;99.90;;;;;;6118199;23;20067;-86
2022/10/01 05:14:03;;;;;;;6.13;4.00;;;10.60;99.90;;;;;;6118856;23;20037;-88
2022/10/01 05:16:29;;;;;;;10.40;4.60;;;10.60;99.90;;;;;;6116527;23;20047;-89
2022/10/01 05:18:55;;;;;;;12.15;4.57;;;10.70;99.90;;;;;;6118649;22;20022;-89
2022/10/01 05:21:21;;;;;;;13.80;5.35;;;10.70;99.90;;;;;;6117187;23;19998;-87
2022/10/01 05:23:46;;;;;;;7.53;4.50;;;10.70;99.90;;;;;;6119629;23;20018;-87
2022/10/01 05:26:15;;;;;;;11.18;4.43;;;10.70;99.90;;;;;;6117284;23;20013;-87
2022/10/01 05:28:44;;;;;;;9.70;4.55;;;10.70;99.90;;;;;;6117336;23;20422;-88
2022/10/01 05:31:12;;;;;;;14.27;4.30;;;10.70;99.90;;;;;;6116766;23;20076;-88
2022/10/01 05:33:41;;;;;;;9.13;4.28;;;10.70;99.90;;;;;;6118390;23;20041;-87
2022/10/01 05:36:07;;;;;;;7.75;4.60;;;10.70;99.90;;;;;;6116392;23;20060;-87
2022/10/01 05:38:36;;;;;;;10.10;4.50;;;10.70;99.90;;;;;;6116080;23;20010;-89
2022/10/01 05:41:03;;;;;;;8.20;4.20;;;10.80;99.90;;;;;;6113936;23;20006;-89
2022/10/01 05:43:30;;;;;;;9.52;4.70;;;10.80;99.90;;;;;;6115599;23;20018;-90
2022/10/01 05:46:00;;;;;;;13.43;5.38;;;10.80;99.90;;;;;;6115934;23;19998;-89
2022/10/01 05:48:26;;;;;;;7.30;4.07;;;10.70;99.90;;;;;;6118544;23;20002;-87
2022/10/01 05:50:53;;;;;;;7.30;3.78;;;10.80;99.90;;;;;;6116408;23;20012;-88
2022/10/01 05:53:19;;;;;;;7.10;4.57;;;10.70;99.90;;;;;;6128018;23;20006;-87
2022/10/01 05:55:44;;;;;;;17.00;5.40;;;10.80;99.90;;;;;;6117601;23;20401;-88
2022/10/01 05:58:15;;;;;;;8.80;3.80;;;10.80;99.90;;;;;;6115800;23;20005;-89
2022/10/01 06:00:50;;;;;;;8.82;6.00;;;10.80;99.90;;;;;;6115076;23;20006;-89
2022/10/01 06:03:15;;;;;;;11.05;3.97;;;10.90;99.90;;;;;;6116730;23;20010;-89
2022/10/01 06:05:46;;;;;;;7.65;4.35;;;10.90;99.90;;;;;;6118554;23;20408;-90
2022/10/01 06:08:12;;;;;;;8.20;5.28;;;11.00;99.90;;;;;;6117514;23;20085;-89
2022/10/01 06:10:38;;;;;;;11.65;6.50;;;10.90;99.90;;;;;;6116901;23;20319;-92
2022/10/01 06:13:04;;;;;;;12.23;7.05;;;11.00;99.90;;;;;;6117377;23;20010;-88
2022/10/01 06:15:36;;;;;;;12.23;4.45;;;11.00;99.90;;;;;;6115033;23;20085;-89
2022/10/01 06:18:09;;;;;;;9.30;5.43;;;11.00;99.90;;;;;;6114858;22;20026;-88
2022/10/01 06:20:36;;;;;;;11.00;5.85;;;10.90;99.90;;;;;;6117772;23;20415;-88
2022/10/01 06:23:04;;;;;;;9.60;4.80;;;10.90;99.90;;;;;;6115008;23;20017;-88
2022/10/01 06:25:30;;;;;;;8.55;4.97;;;10.80;99.90;;;;;;6117379;23;20002;-92
2022/10/01 06:27:57;;;;;;;10.57;5.15;;;10.80;99.90;;;;;;6117017;23;20441;-91
2022/10/01 06:30:31;;;;;;;10.73;5.45;;;10.70;99.90;;;;;;6118438;23;20044;-88
2022/10/01 06:33:09;;;;;;;8.82;5.93;;;10.70;99.90;;;;;;6116805;23;20030;-91
2022/10/01 06:35:39;;;;;;;6.97;5.13;;;10.60;99.90;;;;;;6118299;23;20040;-89
2022/10/01 06:38:09;;;;;;;11.68;4.78;;;10.50;99.90;;;;;;6116893;23;20093;-89
2022/10/01 06:40:35;;;;;;;5.75;4.35;;;10.30;99.90;;;;;;6119765;23;20048;-89
2022/10/01 06:43:00;;;;;;;6.85;4.68;;;10.30;99.90;;;;;;6116844;23;20014;-86
2022/10/01 06:45:28;;;;;;;7.03;4.80;;;10.30;99.90;;;;;;6116891;23;20026;-91
2022/10/01 06:48:01;;;;;;;6.78;4.55;;;10.20;99.90;;;;;;6116236;23;20005;-93
2022/10/01 06:50:27;;;;;;;10.50;5.20;;;10.20;99.90;;;;;;6118201;23;20006;-88
2022/10/01 06:52:53;;;;;;;8.00;4.22;;;10.20;99.90;;;;;;6116606;23;20477;-85
2022/10/01 06:55:28;;;;;;;6.57;4.60;;;10.20;99.90;;;;;;6118630;23;20002;-89
2022/10/01 06:57:55;;;;;;;8.65;4.72;;;10.20;99.90;;;;;;6118407;23;20049;-92
2022/10/01 07:00:21;;;;;;;8.07;4.80;;;10.10;99.90;;;;;;6117676;23;20386;-88
2022/10/01 07:02:47;;;;;;;9.57;4.15;;;10.10;99.90;;;;;;6117167;23;20010;-87
2022/10/01 07:05:13;;;;;;;9.00;4.53;;;10.10;99.90;;;;;;6118152;23;20155;-88
2022/10/01 07:07:39;;;;;;;6.97;5.07;;;10.10;99.90;;;;;;6117144;23;20010;-86
2022/10/01 07:10:07;;;;;;;8.43;3.92;;;10.10;99.90;;;;;;6116972;23;20375;-88
2022/10/01 07:12:34;;;;;;;6.03;4.57;;;10.10;99.90;;;;;;6118086;23;20082;-89
2022/10/01 07:15:00;;;;;;;8.35;4.13;;;10.10;99.90;;;;;;6118813;23;20052;-90
2022/10/01 07:17:27;;;;;;;6.55;4.35;;;10.10;99.90;;;;;;6115960;23;20013;-90
2022/10/01 07:19:52;;;;;;;6.47;4.15;;;10.10;99.90;;;;;;6119498;23;20040;-89
2022/10/01 07:22:18;;;;;;;9.07;4.25;;;10.00;99.90;;;;;;6118441;23;20002;-94
2022/10/01 07:24:45;;;;;;;8.98;4.28;;;10.00;99.90;;;;;;6117881;23;20014;-90
2022/10/01 07:27:11;;;;;;;7.85;4.03;;;10.10;99.90;;;;;;6118148;23;20009;-93
2022/10/01 07:29:37;;;;;;;6.10;4.22;;;10.10;99.90;;;;;;6118755;23;19998;-92
2022/10/01 07:32:07;;;;;;;6.57;4.47;;;10.10;99.90;;;;;;6118726;23;20078;-90
2022/10/01 07:34:34;;;;;;;8.65;4.70;;;10.10;99.90;;;;;;6118184;23;20015;-91
2022/10/01 07:37:00;;;;;;;6.15;4.25;;;10.10;99.90;;;;;;6117489;23;20002;-90
2022/10/01 07:39:26;;;;;;;7.60;3.92;;;10.10;99.90;;;;;;6117756;23;20006;-89
2022/10/01 07:41:52;;;;;;;5.07;3.80;;;10.10;99.90;;;;;;6117441;23;20029;-91
2022/10/01 07:44:18;;;;;;;12.50;4.53;;;10.10;99.90;;;;;;6116751;23;20017;-91
2022/10/01 07:46:46;;;;;;;9.07;4.47;;;10.20;99.90;;;;;;6116654;23;20006;-91
2022/10/01 07:49:12;;;;;;;7.00;4.10;;;10.10;99.90;;;;;;6117955;23;19999;-90
2022/10/01 07:51:37;;;;;;;6.53;4.13;;;10.20;99.90;;;;;;6117685;23;20013;-90
2022/10/01 07:54:04;;;;;;;6.90;3.88;;;10.20;99.90;;;;;;6118538;23;20355;-86
2022/10/01 07:56:30;;;;;;;8.98;3.72;;;10.20;99.90;;;;;;6117827;23;20010;-87
2022/10/01 07:58:57;;;;;;;6.05;3.95;;;10.20;99.90;;;;;;6118508;23;19998;-87
2022/10/01 08:01:23;;;;;;;7.72;4.35;;;10.20;99.90;;;;;;6116313;23;20455;-90
2022/10/01 08:03:50;;;;;;;9.95;4.40;;;10.30;99.90;;;;;;6118690;23;20021;-89
2022/10/01 08:06:17;;;;;;;5.35;4.03;;;10.30;99.90;;;;;;6116081;23;20407;-87
2022/10/01 08:08:43;;;;;;;5.95;4.28;;;10.30;99.90;;;;;;6118352;23;20010;-90
2022/10/01 08:11:12;;;;;;;7.82;4.43;;;10.20;99.90;;;;;;6116666;23;20009;-87
2022/10/01 08:13:38;;;;;;;10.73;5.13;;;10.20;99.90;;;;;;6120181;23;20051;-90
2022/10/01 08:16:06;;;;;;;6.85;3.97;;;10.20;99.90;;;;;;6121416;23;20086;-88
2022/10/01 08:18:32;;;;;;;9.13;3.55;;;10.20;99.90;;;;;;6119580;22;20109;-87
2022/10/01 08:21:00;;;;;;;4.88;3.33;;;10.20;99.90;;;;;;6121553;23;20009;-88
2022/10/01 08:23:29;;;;;;;7.07;3.88;;;10.20;99.90;;;;;;6120217;23;20043;-91
2022/10/01 08:26:07;;;;;;;4.57;3.00;;;10.20;99.90;;;;;;6121769;23;20017;-87
2022/10/01 08:28:51;;;;;;;4.13;3.42;;;10.20;99.90;;;;;;6119803;23;20423;-86
2022/10/01 08:31:17;;;;;;;5.72;3.20;;;10.30;99.90;;;;;;6119766;23;20006;-89
2022/10/01 08:33:43;;;;;;;6.00;2.88;;;10.30;99.90;;;;;;6121562;23;20020;-88
2022/10/01 08:36:12;;;;;;;11.60;3.08;;;10.30;99.90;;;;;;6121821;23;20002;-89
2022/10/01 08:38:39;;;;;;;5.50;3.15;;;10.30;99.90;;;;;;6120834;23;20352;-85
2022/10/01 08:41:36;;;;;;;4.28;3.08;;;10.30;99.90;;;;;;6120645;23;20030;-93
2022/10/01 08:44:04;;;;;;;4.07;2.47;;;10.30;99.90;;;;;;6120784;23;20005;-91
2022/10/01 08:46:35;;;;;;;3.78;2.88;;;10.30;99.90;;;;;;6119630;23;20056;-89
2022/10/01 08:49:19;;;;;;;3.72;2.78;;;10.20;99.90;;;;;;6122304;23;20006;-87
2022/10/01 08:51:54;;;;;;;3.90;2.97;;;10.30;99.90;;;;;;6118807;23;20002;-89
2022/10/01 08:55:06;;;;;;;2.72;2.53;;;10.30;99.90;;;;;;6121893;23;20487;-90
2022/10/01 08:57:40;;;;;;;2.88;2.58;;;10.30;99.90;;;;;;6030579;23;20003;-88
2022/10/01 09:00:13;;;;;;;2.40;2.20;;;10.20;99.90;;;;;;6030922;23;20008;-89
2022/10/01 09:02:41;;;;;;;5.95;2.38;;;10.20;99.90;;;;;;6080972;23;20006;-90
2022/10/01 09:05:25;;;;;;;2.80;2.35;;;10.20;99.90;;;;;;6120967;23;20389;-90
2022/10/01 09:08:20;;;;;;;5.22;2.33;;;10.20;99.90;;;;;;6120359;23;20037;-88
2022/10/01 09:11:06;;;;;;;7.20;2.70;;;10.20;99.90;;;;;;6102875;23;20006;-91
2022/10/01 09:13:50;;;;;;;6.20;2.88;;;10.10;99.90;;;;;;6120933;23;20427;-89
2022/10/01 09:16:36;;;;;;;3.35;2.60;;;10.10;99.90;;;;;;6120403;23;20097;-89
2022/10/01 09:19:26;;;;;;;2.85;2.20;;;10.10;99.90;;;;;;6118658;22;20045;-87
2022/10/01 09:21:57;;;;;;;3.78;2.00;;;10.10;99.90;;;;;;6115410;23;20046;-85
2022/10/01 09:24:37;;;;;;;2.33;1.73;;;10.10;99.90;;;;;;6119349;23;20089;-92
2022/10/01 09:27:16;;;;;;;2.05;1.75;;;10.10;99.90;;;;;;6118258;23;20075;-90
2022/10/01 09:29:48;;;;;;;2.78;2.03;;;10.10;99.90;;;;;;6120115;23;20002;-92
2022/10/01 09:32:25;;;;;;;3.47;1.70;;;10.10;99.90;;;;;;6117506;23;20006;-89
2022/10/01 09:34:52;;;;;;;2.78;1.73;;;10.10;99.90;;;;;;6118628;23;20013;-87
2022/10/01 09:37:43;;;;;;;5.07;2.58;;;10.20;99.90;;;;;;6092306;23;20010;-88
2022/10/01 09:40:45;;;;;;;3.50;2.90;;;10.20;99.90;;;;;;6108580;23;20010;-87
2022/10/01 09:43:17;;;;;;;2.10;1.88;;;10.20;99.90;;;;;;6118410;23;20040;-86
2022/10/01 09:45:43;;;;;;;2.63;1.77;;;10.30;99.90;;;;;;6118280;23;20062;-89
2022/10/01 09:48:33;;;;;;;2.97;1.55;;;10.30;99.90;;;;;;6118254;23;20077;-92
2022/10/01 09:51:14;;;;;;;2.45;1.50;;;10.30;99.90;;;;;;6119833;23;20050;-89
2022/10/01 09:54:02;;;;;;;3.13;1.70;;;10.40;99.90;;;;;;6117424;23;20074;-86
2022/10/01 09:56:34;;;;;;;2.90;1.42;;;10.40;99.90;;;;;;6092061;23;20013;-86
2022/10/01 09:59:05;;;;;;;41.15;15.20;;;10.50;99.90;;;;;;6118840;23;20002;-86
2022/10/01 10:01:50;;;;;;;24.35;11.73;;;10.50;99.90;;;;;;6117142;23;20029;-86
2022/10/01 10:04:22;;;;;;;9.65;6.78;;;10.60;99.90;;;;;;6117144;23;20475;-90
2022/10/01 10:07:02;;;;;;;3.25;2.13;;;10.60;99.90;;;;;;6116801;23;20006;-87
2022/10/01 10:09:30;;;;;;;2.85;2.65;;;10.70;99.90;;;;;;6116915;23;20435;-90
2022/10/01 10:11:58;;;;;;;18.48;11.98;;;10.70;99.90;;;;;;6115140;23;20018;-88
2022/10/01 10:14:44;;;;;;;8.27;2.55;;;10.80;99.90;;;;;;6116752;23;20323;-92
2022/10/01 10:17:18;;;;;;;8.68;5.57;;;10.80;99.90;;;;;;6116391;23;20299;-88
2022/10/01 10:19:50;;;;;;;1.48;1.35;;;10.80;99.90;;;;;;6119111;23;20411;-86
2022/10/01 10:22:23;;;;;;;4.55;3.90;;;10.90;99.90;;;;;;6117080;23;20006;-91
2022/10/01 10:24:51;;;;;;;4.47;1.90;;;11.00;99.90;;;;;;6118181;23;20031;-89
2022/10/01 10:27:26;;;;;;;4.43;0.98;;;11.10;99.90;;;;;;6117185;23;20319;-89
2022/10/01 10:30:15;;;;;;;2.28;2.13;;;11.10;99.90;;;;;;6118390;23;20077;-86
2022/10/01 10:32:43;;;;;;;1.58;1.25;;;11.20;99.90;;;;;;6088054;23;20069;-88
2022/10/01 10:35:19;;;;;;;0.80;0.80;;;11.30;99.90;;;;;;6117153;23;20002;-87
2022/10/01 10:37:50;;;;;;;3.03;1.23;;;11.30;99.90;;;;;;6115947;23;20017;-88
2022/10/01 10:40:19;;;;;;;0.73;0.73;;;11.40;99.90;;;;;;6118754;23;20089;-89
2022/10/01 10:42:53;;;;;;;3.50;1.67;;;11.40;99.90;;;;;;6116373;23;20076;-88
2022/10/01 10:45:29;;;;;;;2.15;0.80;;;11.40;99.90;;;;;;6118272;23;20010;-92
2022/10/01 10:47:56;;;;;;;1.30;1.20;;;11.40;99.90;;;;;;6114784;23;20032;-86
2022/10/01 10:50:34;;;;;;;2.10;1.15;;;11.40;99.90;;;;;;6118642;23;20002;-86
2022/10/01 10:53:21;;;;;;;0.75;0.75;;;11.40;99.90;;;;;;6117841;23;20018;-87
2022/10/01 10:55:59;;;;;;;7.93;2.42;;;11.40;99.90;;;;;;6119072;23;20008;-92
2022/10/01 10:58:33;;;;;;;2.60;1.85;;;11.50;99.90;;;;;;6118095;23;20036;-94
2022/10/01 11:01:12;;;;;;;2.47;1.00;;;11.50;99.90;;;;;;6119161;23;20439;-90
2022/10/01 11:03:45;;;;;;;0.90;0.90;;;11.60;99.90;;;;;;6117843;23;20014;-90
2022/10/01 11:06:13;;;;;;;1.60;0.75;;;11.60;99.90;;;;;;6119141;23;20022;-89
2022/10/01 11:08:40;;;;;;;1.38;0.90;;;11.60;99.90;;;;;;6117654;23;20014;-88
2022/10/01 11:11:26;;;;;;;1.38;0.93;;;11.50;99.90;;;;;;6119349;23;20002;-87
2022/10/01 11:14:11;;;;;;;;;;;11.60;99.90;;;;;;6117071;23;20069;-82
2022/10/01 11:16:42;;;;;;;1.33;1.23;;;11.60;99.90;;;;;;6119561;23;19933;-88
2022/10/01 11:19:17;;;;;;;1.13;0.73;;;11.60;99.90;;;;;;6117775;23;20439;-89
2022/10/01 11:22:30;;;;;;;1.17;0.88;;;11.60;99.90;;;;;;6114438;23;20214;-87
2022/10/01 11:25:14;;;;;;;1.63;0.77;;;11.70;99.90;;;;;;6118640;23;20017;-87
2022/10/01 11:27:57;;;;;;;2.15;0.85;;;11.70;99.90;;;;;;6115819;23;20002;-86
2022/10/01 11:30:35;;;;;;;0.60;0.60;;;11.80;99.90;;;;;;6115529;23;20002;-87
2022/10/01 11:33:15;;;;;;;1.05;0.60;;;11.80;99.90;;;;;;6116751;23;20100;-87
2022/10/01 11:36:05;;;;;;;0.55;0.55;;;11.80;99.90;;;;;;6118652;23;20052;-88
2022/10/01 11:38:37;;;;;;;0.50;0.50;;;11.80;99.90;;;;;;6116234;23;20005;-87
2022/10/01 11:41:17;;;;;;;0.60;0.60;;;11.90;99.90;;;;;;6117006;23;20013;-90
2022/10/01 11:43:54;;;;;;;2.13;1.67;;;11.80;99.90;;;;;;6116815;23;20021;-89
2022/10/01 11:46:29;;;;;;;0.80;0.80;;;11.80;99.90;;;;;;6116311;23;20006;-86
2022/10/01 11:49:11;;;;;;;0.65;0.65;;;11.80;99.90;;;;;;6116552;23;20006;-87
2022/10/01 11:51:45;;;;;;;1.42;1.20;;;11.80;99.90;;;;;;6117635;23;20458;-90
2022/10/01 11:54:16;;;;;;;3.22;0.90;;;11.80;99.90;;;;;;6116550;23;20009;-89
2022/10/01 11:59:35;;;;;;;1.02;0.82;;;11.80;99.90;;;;;;6115000;23;20037;-89
2022/10/01 12:02:13;;;;;;;0.88;0.88;;;11.80;99.90;;;;;;6116543;23;20463;-90
2022/10/01 12:04:48;;;;;;;0.70;0.70;;;11.70;99.90;;;;;;6115450;23;20020;-87
2022/10/01 12:07:28;;;;;;;0.73;0.73;;;11.80;99.90;;;;;;6116402;23;20420;-88
2022/10/01 12:09:58;;;;;;;0.73;0.73;;;11.80;99.90;;;;;;6118004;23;20222;-88
2022/10/01 12:13:14;;;;;;;1.27;0.88;;;11.80;99.90;;;;;;6117306;23;20037;-89
2022/10/01 12:15:54;;;;;;;1.67;1.33;;;11.90;99.90;;;;;;6100387;23;20007;-91
2022/10/01 12:18:35;;;;;;;1.27;0.88;;;12.00;99.90;;;;;;6114645;23;20093;-88
2022/10/01 12:21:06;;;;;;;2.08;0.93;;;12.00;99.90;;;;;;6117679;23;20056;-86
2022/10/01 12:23:49;;;;;;;4.85;1.20;;;12.10;99.90;;;;;;6116866;23;20018;-88
2022/10/01 12:26:52;;;;;;;2.95;1.10;;;12.20;99.90;;;;;;6117866;23;20038;-86
2022/10/01 12:29:37;;;;;;;7.00;1.15;;;12.40;99.90;;;;;;6117084;23;20010;-86
2022/10/01 12:32:48;;;;;;;3.42;0.90;;;12.50;99.90;;;;;;6116891;23;20463;-90
2022/10/01 12:35:34;;;;;;;3.28;1.05;;;12.70;99.90;;;;;;6116612;23;20067;-89
2022/10/01 12:38:18;;;;;;;3.45;1.00;;;12.80;99.90;;;;;;6113039;23;20075;-89
2022/10/01 12:41:05;;;;;;;0.93;0.70;;;13.00;99.90;;;;;;6113554;23;20010;-88
2022/10/01 12:43:48;;;;;;;0.82;0.82;;;13.00;99.90;;;;;;6115685;23;20014;-87
2022/10/01 12:46:26;;;;;;;1.20;0.68;;;13.10;99.90;;;;;;6117597;23;20451;-87
2022/10/01 12:49:21;;;;;;;0.90;0.68;;;13.20;99.90;;;;;;6114111;23;20002;-88
2022/10/01 12:52:00;;;;;;;0.98;0.82;;;13.20;99.90;;;;;;6117954;23;20002;-85
2022/10/01 12:54:53;;;;;;;1.33;0.70;;;13.40;99.90;;;;;;6115953;23;20006;-84
2022/10/01 12:57:43;;;;;;;2.20;1.00;;;13.40;99.90;;;;;;6116590;23;20008;-88
2022/10/01 13:00:23;;;;;;;2.17;0.80;;;13.50;99.90;;;;;;6119165;23;20002;-86
2022/10/01 13:03:11;;;;;;;1.42;0.73;;;13.60;99.90;;;;;;6118921;23;20002;-85
2022/10/01 13:06:11;;;;;;;7.18;2.70;;;13.70;99.90;;;;;;6119357;23;20010;-87
2022/10/01 13:09:01;;;;;;;2.22;0.88;;;13.80;99.90;;;;;;6118541;23;20376;-85
2022/10/01 13:12:01;;;;;;;3.13;0.90;;;14.00;99.90;;;;;;6119282;23;20033;-83
2022/10/01 13:14:31;;;;;;;6.95;1.02;;;14.10;99.90;;;;;;6117794;23;20511;-87
2022/10/01 13:17:25;;;;;;;1.80;0.82;;;14.00;99.90;;;;;;6119642;23;20316;-85
2022/10/01 13:20:24;;;;;;;2.00;0.73;;;14.00;99.90;;;;;;6118544;23;20021;-85
2022/10/01 13:23:08;;;;;;;0.80;0.80;;;14.00;99.90;;;;;;6117556;23;20006;-85